Time;durP1;ratioP1;P1;durP2;ratioP2;P2;SDS_P1;SDS_P2;PMS_P1;PMS_P2;Temp;Humidity;BMP_temperature;BMP_pressure;BME280_temperature;BME280_humidity;BME280_pressure;Samples;Min_cycle;Max_cycle;Signal;HPM_P1;HPM_P2
2022/01/04 00:01:44;;;;;;;32.10;5.43;;;7.40;99.90;;;;;;4992145;28;20472;-29
2022/01/04 00:04:10;;;;;;;29.73;5.20;;;7.40;99.90;;;;;;4988697;28;20050;-29
2022/01/04 00:06:35;;;;;;;24.27;5.33;;;7.50;99.90;;;;;;4977618;28;20554;-29
2022/01/04 00:09:04;;;;;;;27.80;5.67;;;7.50;99.90;;;;;;4972370;28;20081;-29
2022/01/04 00:14:19;;;;;;;34.23;5.60;;;7.40;99.90;;;;;;4934704;28;20430;-29
2022/01/04 00:16:45;;;;;;;35.47;5.50;;;7.40;99.90;;;;;;4923580;28;20056;-29
2022/01/04 00:19:11;;;;;;;31.07;5.07;;;7.40;99.90;;;;;;4971324;28;20133;-29
2022/01/04 00:21:37;;;;;;;31.40;5.10;;;7.40;99.90;;;;;;4972663;28;20118;-29
2022/01/04 00:24:04;;;;;;;30.47;4.80;;;7.40;99.90;;;;;;4984689;28;20050;-29
2022/01/04 00:26:30;;;;;;;29.43;5.57;;;7.40;99.90;;;;;;4978895;28;20478;-29
2022/01/04 00:28:56;;;;;;;34.23;6.63;;;7.40;99.90;;;;;;4971472;28;20490;-29
2022/01/04 00:31:21;;;;;;;32.33;4.90;;;7.40;99.90;;;;;;4991793;28;20065;-29
2022/01/04 00:33:47;;;;;;;33.93;5.63;;;7.40;99.90;;;;;;4990674;28;20116;-29
2022/01/04 00:36:13;;;;;;;25.03;5.30;;;7.40;99.90;;;;;;4982833;28;20034;-30
2022/01/04 00:38:39;;;;;;;25.47;5.17;;;7.40;99.90;;;;;;4967554;28;20038;-29
2022/01/04 00:41:04;;;;;;;26.77;5.40;;;7.40;99.90;;;;;;4973571;28;20054;-29
2022/01/04 00:43:30;;;;;;;30.60;5.03;;;7.40;99.90;;;;;;4973171;28;20399;-29
2022/01/04 00:45:56;;;;;;;29.73;5.30;;;7.40;99.90;;;;;;4991176;28;20145;-29
2022/01/04 00:50:47;;;;;;;32.73;5.60;;;7.40;99.90;;;;;;4991632;28;20097;-29
2022/01/04 00:53:13;;;;;;;29.17;5.00;;;7.40;99.90;;;;;;4990195;28;20047;-29
2022/01/04 00:55:40;;;;;;;27.30;5.50;;;7.40;99.90;;;;;;4991280;28;20046;-29
2022/01/04 00:58:06;;;;;;;29.77;5.20;;;7.40;99.90;;;;;;4974788;28;20049;-29
2022/01/04 01:00:32;;;;;;;31.27;5.90;;;7.40;99.90;;;;;;4991060;28;20034;-29
2022/01/04 01:02:59;;;;;;;30.83;6.17;;;7.40;99.90;;;;;;4990588;28;20046;-29
2022/01/04 01:05:26;;;;;;;28.20;5.47;;;7.40;99.90;;;;;;4990595;28;20557;-29
2022/01/04 01:07:55;;;;;;;34.60;6.63;;;7.30;99.90;;;;;;4974495;28;20078;-29
2022/01/04 01:10:42;;;;;;;32.90;6.20;;;7.30;99.90;;;;;;4990947;28;20054;-29
2022/01/04 01:13:09;;;;;;;36.37;6.77;;;7.30;99.90;;;;;;4989619;28;20057;-30
2022/01/04 01:15:36;;;;;;;27.70;6.00;;;7.40;99.90;;;;;;4989596;28;20050;-29
2022/01/04 01:18:02;;;;;;;33.03;6.03;;;7.40;99.90;;;;;;4957096;28;20524;-29
2022/01/04 01:20:28;;;;;;;32.70;6.30;;;7.40;99.90;;;;;;4990647;28;20057;-29
2022/01/04 01:22:54;;;;;;;43.73;6.90;;;7.40;99.90;;;;;;4990159;28;20394;-29
2022/01/04 01:25:20;;;;;;;32.03;6.50;;;7.40;99.90;;;;;;4990625;28;20092;-29
2022/01/04 01:27:46;;;;;;;34.07;6.57;;;7.40;99.90;;;;;;4974609;28;20116;-29
2022/01/04 01:30:13;;;;;;;27.97;6.70;;;7.40;99.90;;;;;;4990289;28;20042;-29
2022/01/04 01:32:38;;;;;;;36.03;6.40;;;7.40;99.90;;;;;;4990070;28;20050;-29
2022/01/04 01:35:05;;;;;;;33.27;6.20;;;7.40;99.90;;;;;;4990383;28;20340;-29
2022/01/04 01:37:31;;;;;;;31.90;7.30;;;7.40;99.90;;;;;;4974857;28;20090;-29
2022/01/04 01:39:57;;;;;;;31.97;6.60;;;7.50;99.90;;;;;;4990233;28;20047;-29
2022/01/04 01:42:23;;;;;;;40.17;6.60;;;7.40;99.90;;;;;;4989671;28;20065;-30
2022/01/04 01:44:49;;;;;;;35.13;7.73;;;7.40;99.90;;;;;;4990689;28;20093;-29
2022/01/04 01:47:15;;;;;;;33.67;6.93;;;7.50;99.90;;;;;;4973756;28;20085;-29
2022/01/04 01:49:40;;;;;;;33.50;7.30;;;7.50;99.90;;;;;;4990326;28;20085;-29
2022/01/04 01:52:06;;;;;;;30.93;6.97;;;7.50;99.90;;;;;;4989218;28;20046;-30
2022/01/04 01:54:32;;;;;;;32.80;7.40;;;7.50;99.90;;;;;;4989978;28;20414;-29
2022/01/04 01:56:58;;;;;;;35.93;7.27;;;7.50;99.90;;;;;;4975045;28;20045;-29
2022/01/04 01:59:24;;;;;;;34.23;7.23;;;7.50;99.90;;;;;;4971766;28;20121;-29
2022/01/04 02:01:51;;;;;;;35.30;6.70;;;7.50;99.90;;;;;;4989770;28;20109;-29
2022/01/04 02:04:17;;;;;;;32.87;6.60;;;7.60;99.90;;;;;;4985653;28;20070;-30
2022/01/04 02:06:42;;;;;;;34.77;6.60;;;7.50;99.90;;;;;;4964182;28;20070;-29
2022/01/04 02:09:08;;;;;;;37.47;6.67;;;7.60;99.90;;;;;;4971537;28;20076;-29
2022/01/04 02:11:34;;;;;;;33.77;6.70;;;7.60;99.90;;;;;;4988600;28;20038;-29
2022/01/04 02:14:01;;;;;;;30.30;6.10;;;7.50;99.90;;;;;;4988860;28;20556;-29
2022/01/04 02:16:29;;;;;;;32.30;6.53;;;7.50;99.90;;;;;;4976028;28;20478;-29
2022/01/04 02:19:06;;;;;;;33.47;6.07;;;7.50;99.90;;;;;;4986052;28;20046;-29
2022/01/04 02:21:33;;;;;;;32.33;6.23;;;7.50;99.90;;;;;;4988185;28;20050;-30
2022/01/04 02:23:59;;;;;;;35.27;6.73;;;7.50;99.90;;;;;;4987706;28;20054;-30
2022/01/04 02:26:26;;;;;;;28.53;6.87;;;7.50;99.90;;;;;;4959644;28;20042;-30
2022/01/04 02:28:52;;;;;;;36.37;7.20;;;7.60;99.90;;;;;;4985320;28;20619;-29
2022/01/04 02:31:18;;;;;;;30.03;6.27;;;7.60;99.90;;;;;;4989472;28;20054;-30
2022/01/04 02:33:43;;;;;;;36.50;7.10;;;7.50;99.90;;;;;;4988229;28;20759;-29
2022/01/04 02:36:09;;;;;;;39.73;7.27;;;7.50;99.90;;;;;;4983183;28;20494;-30
2022/01/04 02:38:37;;;;;;;41.27;7.27;;;7.80;99.90;;;;;;4981596;28;20394;-29
2022/01/04 02:41:03;;;;;;;35.47;8.07;;;7.60;99.90;;;;;;4989171;28;20132;-29
2022/01/04 02:43:28;;;;;;;37.03;8.20;;;7.60;99.90;;;;;;4970857;28;20046;-29
2022/01/04 02:45:54;;;;;;;40.10;8.27;;;7.50;99.90;;;;;;4989091;28;20046;-29
2022/01/04 02:48:20;;;;;;;34.47;8.83;;;7.50;99.90;;;;;;4972522;28;20038;-29
2022/01/04 02:50:46;;;;;;;46.77;9.10;;;7.50;99.90;;;;;;4989129;28;20421;-29
2022/01/04 02:53:12;;;;;;;43.13;9.27;;;7.60;99.90;;;;;;4987270;28;20522;-29
2022/01/04 02:55:38;;;;;;;39.17;9.17;;;7.60;99.90;;;;;;4989179;28;20129;-30
2022/01/04 02:58:03;;;;;;;37.40;9.20;;;7.60;99.90;;;;;;4972277;28;20051;-29
2022/01/04 03:00:29;;;;;;;39.03;9.10;;;7.60;99.90;;;;;;4988920;28;20083;-29
2022/01/04 03:02:55;;;;;;;34.67;8.80;;;7.60;99.90;;;;;;4988325;28;20137;-29
2022/01/04 03:05:21;;;;;;;44.57;10.20;;;7.70;99.90;;;;;;4975075;28;20051;-30
2022/01/04 03:07:47;;;;;;;37.23;8.83;;;7.60;99.90;;;;;;4948430;28;20497;-29
2022/01/04 03:10:13;;;;;;;41.10;8.93;;;7.70;99.90;;;;;;4989045;28;20050;-29
2022/01/04 03:12:42;;;;;;;32.77;8.20;;;7.70;99.90;;;;;;4987507;28;20445;-29
2022/01/04 03:15:09;;;;;;;34.13;8.13;;;7.70;99.90;;;;;;4989296;28;20074;-29
2022/01/04 03:17:34;;;;;;;38.07;8.60;;;7.70;99.90;;;;;;4972400;28;20405;-30
2022/01/04 03:20:00;;;;;;;32.17;7.73;;;7.70;99.90;;;;;;4989003;28;20129;-29
2022/01/04 03:22:26;;;;;;;41.10;7.80;;;7.80;99.90;;;;;;4988078;28;20109;-29
2022/01/04 03:24:52;;;;;;;34.37;8.27;;;7.70;99.90;;;;;;4971072;28;20061;-29
2022/01/04 03:27:18;;;;;;;39.17;8.80;;;7.80;99.90;;;;;;4972000;28;20053;-29
2022/01/04 03:29:44;;;;;;;36.07;8.80;;;7.80;99.90;;;;;;4988509;28;20120;-29
2022/01/04 03:32:10;;;;;;;36.07;8.20;;;7.80;99.90;;;;;;4970157;28;20486;-30
2022/01/04 03:34:36;;;;;;;38.37;8.90;;;7.80;99.90;;;;;;4989101;28;20153;-29
2022/01/04 03:37:01;;;;;;;42.23;8.93;;;7.80;99.90;;;;;;4976903;28;20050;-29
2022/01/04 03:39:27;;;;;;;42.00;8.47;;;7.80;99.90;;;;;;4992553;28;20061;-29
2022/01/04 03:41:53;;;;;;;39.23;8.70;;;7.80;99.90;;;;;;4992592;28;20652;-29
2022/01/04 03:44:20;;;;;;;39.03;8.07;;;7.80;99.90;;;;;;4991996;28;20465;-30
2022/01/04 03:46:54;;;;;;;35.27;9.07;;;7.80;99.90;;;;;;4976919;28;20070;-29
2022/01/04 03:49:21;;;;;;;40.27;7.97;;;7.80;99.90;;;;;;4991295;28;20148;-29
2022/01/04 03:51:46;;;;;;;34.77;7.63;;;7.70;99.90;;;;;;4992544;28;20045;-29
2022/01/04 03:54:12;;;;;;;38.07;7.70;;;7.70;99.90;;;;;;4991440;28;20469;-30
2022/01/04 03:56:38;;;;;;;42.67;7.93;;;7.70;99.90;;;;;;4978244;28;20560;-30
2022/01/04 03:59:04;;;;;;;31.00;7.87;;;7.70;99.90;;;;;;4989660;28;20042;-30
2022/01/04 04:01:30;;;;;;;33.70;7.87;;;7.70;99.90;;;;;;4992232;28;20038;-30
2022/01/04 04:03:56;;;;;;;37.37;7.77;;;7.70;99.90;;;;;;4989032;28;20042;-29
2022/01/04 04:06:22;;;;;;;32.10;7.80;;;7.70;99.90;;;;;;4965153;28;20089;-29
2022/01/04 04:08:48;;;;;;;45.07;8.07;;;7.80;99.90;;;;;;4985233;28;20074;-29
2022/01/04 04:11:14;;;;;;;33.53;7.30;;;7.70;99.90;;;;;;4988709;28;20498;-29
2022/01/04 04:13:40;;;;;;;39.30;8.00;;;7.70;99.90;;;;;;4991404;28;20070;-29
2022/01/04 04:16:06;;;;;;;42.93;7.97;;;7.70;99.90;;;;;;4991860;28;20046;-30
2022/01/04 04:18:31;;;;;;;37.60;7.73;;;7.70;99.90;;;;;;4975822;28;20104;-30
2022/01/04 04:20:57;;;;;;;36.63;7.40;;;7.70;99.90;;;;;;4992350;28;20050;-29
2022/01/04 04:23:23;;;;;;;36.23;7.50;;;7.70;99.90;;;;;;4991054;28;20410;-29
2022/01/04 04:25:49;;;;;;;37.23;7.20;;;7.70;99.90;;;;;;4991747;28;20054;-29
2022/01/04 04:28:15;;;;;;;38.47;7.73;;;7.70;99.90;;;;;;4957885;28;20077;-29
2022/01/04 04:30:40;;;;;;;44.70;7.87;;;7.80;99.90;;;;;;4974292;28;20054;-29
2022/01/04 04:33:06;;;;;;;47.20;7.47;;;7.70;99.90;;;;;;4990438;28;20043;-29
2022/01/04 04:35:32;;;;;;;38.00;7.37;;;7.70;99.90;;;;;;4974439;28;20149;-29
2022/01/04 04:37:59;;;;;;;39.37;7.80;;;7.70;99.90;;;;;;4975493;28;20046;-29
2022/01/04 04:40:24;;;;;;;36.07;6.73;;;7.70;99.90;;;;;;4991784;28;20050;-30
2022/01/04 04:42:50;;;;;;;30.97;6.97;;;7.70;99.90;;;;;;4990677;28;20057;-29
2022/01/04 04:45:16;;;;;;;33.47;7.07;;;7.80;99.90;;;;;;4991573;28;20054;-30
2022/01/04 04:47:41;;;;;;;38.10;7.53;;;7.70;99.90;;;;;;4972704;28;20113;-30
2022/01/04 04:50:08;;;;;;;39.93;7.33;;;7.70;99.90;;;;;;4972155;28;20054;-29
2022/01/04 04:52:34;;;;;;;42.67;8.13;;;7.70;99.90;;;;;;4971110;28;20035;-29
2022/01/04 04:55:00;;;;;;;35.07;7.10;;;7.70;99.90;;;;;;4971850;28;20058;-29
2022/01/04 04:57:25;;;;;;;42.60;7.30;;;7.70;99.90;;;;;;4943269;28;20453;-29
2022/01/04 04:59:51;;;;;;;36.30;7.73;;;7.70;99.90;;;;;;4968386;28;20054;-30
2022/01/04 05:02:16;;;;;;;37.77;7.67;;;7.60;99.90;;;;;;4972346;28;20301;-29
2022/01/04 05:04:42;;;;;;;34.10;7.73;;;7.70;99.90;;;;;;4980259;28;20057;-30
2022/01/04 05:07:08;;;;;;;41.83;8.07;;;7.70;99.90;;;;;;4972852;28;20097;-29
2022/01/04 05:09:34;;;;;;;37.37;7.53;;;7.70;99.90;;;;;;4990528;28;20541;-29
2022/01/04 05:11:59;;;;;;;36.40;7.83;;;7.70;99.90;;;;;;4989891;28;20046;-29
2022/01/04 05:14:25;;;;;;;43.73;7.90;;;7.70;99.90;;;;;;4989756;28;20057;-29
2022/01/04 05:16:50;;;;;;;33.17;7.17;;;7.70;99.90;;;;;;4975698;28;20136;-29
2022/01/04 05:19:17;;;;;;;33.07;7.17;;;7.70;99.90;;;;;;4989413;28;20069;-30
2022/01/04 05:21:43;;;;;;;31.87;7.27;;;7.70;99.90;;;;;;4973258;28;20535;-29
2022/01/04 05:24:09;;;;;;;31.27;6.97;;;7.70;99.90;;;;;;4989736;28;20054;-30
2022/01/04 05:26:34;;;;;;;34.50;7.13;;;7.70;99.90;;;;;;4976881;28;20398;-29
2022/01/04 05:29:02;;;;;;;33.07;7.27;;;7.70;99.90;;;;;;4970530;28;20054;-29
2022/01/04 05:31:27;;;;;;;38.87;7.70;;;7.70;99.90;;;;;;4990687;28;20050;-29
2022/01/04 05:33:53;;;;;;;37.60;7.67;;;7.70;99.90;;;;;;4989105;28;20583;-30
2022/01/04 05:36:19;;;;;;;36.30;7.00;;;7.70;99.90;;;;;;4979598;28;20054;-30
2022/01/04 05:38:44;;;;;;;37.77;6.93;;;7.70;99.90;;;;;;4985480;28;20054;-29
2022/01/04 05:41:10;;;;;;;34.43;7.83;;;7.70;99.90;;;;;;4990651;28;20085;-30
2022/01/04 05:43:36;;;;;;;28.97;7.00;;;7.70;99.90;;;;;;4989657;28;20561;-29
2022/01/04 05:46:02;;;;;;;35.37;7.27;;;7.70;99.90;;;;;;4972738;28;20073;-29
2022/01/04 05:48:28;;;;;;;28.27;6.37;;;7.70;99.90;;;;;;4973604;28;20058;-29
2022/01/04 05:50:54;;;;;;;33.47;7.67;;;7.70;99.90;;;;;;4972711;28;20054;-29
2022/01/04 05:53:19;;;;;;;32.70;7.30;;;7.60;99.90;;;;;;4989291;28;20046;-29
2022/01/04 05:55:45;;;;;;;28.20;7.67;;;7.70;99.90;;;;;;4990474;28;20050;-29
2022/01/04 05:58:11;;;;;;;37.03;8.10;;;7.60;99.90;;;;;;4973203;28;20501;-30
2022/01/04 06:00:37;;;;;;;37.53;8.37;;;7.60;99.90;;;;;;4989953;28;20398;-29
2022/01/04 06:03:03;;;;;;;34.47;7.87;;;7.70;99.90;;;;;;4989234;28;20359;-29
2022/01/04 06:05:29;;;;;;;29.30;7.53;;;7.60;99.90;;;;;;4974856;28;20047;-29
2022/01/04 06:07:55;;;;;;;38.77;7.93;;;7.60;99.90;;;;;;4958678;28;20418;-29
2022/01/04 06:10:21;;;;;;;33.13;8.10;;;7.70;99.90;;;;;;4990021;28;20050;-29
2022/01/04 06:15:14;;;;;;;39.23;8.17;;;7.60;99.90;;;;;;4990292;28;20504;-29
2022/01/04 06:17:49;;;;;;;35.50;8.60;;;7.60;99.90;;;;;;4971544;28;20086;-29
2022/01/04 06:20:21;;;;;;;31.53;8.23;;;7.60;99.90;;;;;;4989983;28;20046;-30
2022/01/04 06:22:48;;;;;;;43.97;8.37;;;7.70;99.90;;;;;;4988842;28;20042;-30
2022/01/04 06:25:17;;;;;;;36.37;8.57;;;7.60;99.90;;;;;;4989695;28;20093;-30
2022/01/04 06:27:44;;;;;;;39.00;7.60;;;7.60;99.90;;;;;;4973309;28;20054;-29
2022/01/04 06:30:10;;;;;;;43.17;9.03;;;7.70;99.90;;;;;;4989503;28;20046;-29
2022/01/04 06:32:36;;;;;;;41.13;8.70;;;7.60;99.90;;;;;;4988437;28;20117;-30
2022/01/04 06:35:04;;;;;;;36.23;7.97;;;7.70;99.90;;;;;;4989404;28;20050;-30
2022/01/04 06:37:30;;;;;;;34.47;8.27;;;7.70;99.90;;;;;;4973370;28;20046;-29
2022/01/04 06:39:55;;;;;;;36.83;7.97;;;7.70;99.90;;;;;;4988079;28;20050;-29
2022/01/04 06:42:21;;;;;;;28.87;7.47;;;7.70;99.90;;;;;;4984528;28;20042;-30
2022/01/04 06:44:46;;;;;;;30.33;7.27;;;7.70;99.90;;;;;;4989149;28;20053;-29
2022/01/04 06:47:12;;;;;;;31.17;7.23;;;7.70;99.90;;;;;;4972386;28;20336;-30
2022/01/04 06:49:38;;;;;;;28.83;7.33;;;7.70;99.90;;;;;;4988887;28;20506;-29
2022/01/04 06:52:05;;;;;;;34.30;6.80;;;7.70;99.90;;;;;;4988500;28;20042;-31
2022/01/04 06:54:31;;;;;;;30.87;6.63;;;7.70;99.90;;;;;;4989386;28;20041;-29
2022/01/04 06:56:57;;;;;;;23.20;6.80;;;7.70;99.90;;;;;;4974091;28;20046;-30
2022/01/04 06:59:22;;;;;;;27.13;6.90;;;7.70;99.90;;;;;;4979915;28;20507;-29
2022/01/04 07:01:48;;;;;;;26.40;5.93;;;7.70;99.90;;;;;;4986425;28;20133;-30
2022/01/04 07:04:14;;;;;;;27.07;6.53;;;7.70;99.90;;;;;;4985729;28;20042;-29
2022/01/04 07:06:41;;;;;;;24.83;5.70;;;7.70;99.90;;;;;;4971897;28;20084;-29
2022/01/04 07:09:07;;;;;;;32.40;6.83;;;7.70;99.90;;;;;;4983172;28;20043;-30
2022/01/04 07:11:34;;;;;;;29.50;6.67;;;7.70;99.90;;;;;;4986315;28;20104;-29
2022/01/04 07:14:01;;;;;;;24.67;5.97;;;7.70;99.90;;;;;;4985662;28;20046;-29
2022/01/04 07:16:26;;;;;;;28.10;5.80;;;7.70;99.90;;;;;;4973963;28;20616;-30
2022/01/04 07:18:53;;;;;;;25.27;6.00;;;7.70;99.90;;;;;;4981412;28;20077;-29
2022/01/04 07:21:19;;;;;;;22.60;5.80;;;7.70;99.90;;;;;;4981913;28;20047;-29
2022/01/04 07:23:48;;;;;;;20.70;5.57;;;7.70;99.90;;;;;;4960675;28;20038;-29
2022/01/04 07:26:14;;;;;;;21.80;5.10;;;7.70;99.90;;;;;;4964721;28;20051;-30
2022/01/04 07:28:50;;;;;;;25.67;4.77;;;7.60;99.90;;;;;;4961711;28;20046;-30
2022/01/04 07:31:16;;;;;;;18.17;4.50;;;7.60;99.90;;;;;;4985377;28;20058;-30
2022/01/04 07:33:44;;;;;;;20.57;4.67;;;7.70;99.90;;;;;;4985935;28;20573;-29
2022/01/04 07:36:10;;;;;;;20.40;4.67;;;7.60;99.90;;;;;;4981022;28;20433;-30
2022/01/04 07:38:37;;;;;;;26.63;5.07;;;7.60;99.90;;;;;;4980851;28;20051;-29
2022/01/04 07:41:04;;;;;;;23.43;5.23;;;7.70;99.90;;;;;;4988560;28;20104;-29
2022/01/04 07:43:30;;;;;;;25.53;5.30;;;7.60;99.90;;;;;;4987791;28;20053;-29
2022/01/04 07:45:56;;;;;;;18.90;4.43;;;7.60;99.90;;;;;;4970643;28;20057;-29
2022/01/04 07:48:21;;;;;;;26.03;5.60;;;7.70;99.90;;;;;;4971676;28;20502;-29
2022/01/04 07:50:49;;;;;;;19.83;5.37;;;7.70;99.90;;;;;;4988426;28;20494;-30
2022/01/04 07:53:15;;;;;;;21.00;5.50;;;7.60;99.90;;;;;;4987157;28;20077;-29
2022/01/04 07:55:41;;;;;;;20.03;5.30;;;7.60;99.90;;;;;;4988052;28;20050;-30
2022/01/04 07:58:07;;;;;;;22.70;5.70;;;7.60;99.90;;;;;;4971735;28;20050;-29
2022/01/04 08:00:33;;;;;;;31.23;5.80;;;7.60;99.90;;;;;;4978525;28;20155;-29
2022/01/04 08:02:58;;;;;;;24.83;5.43;;;7.60;99.90;;;;;;4987748;28;20039;-29
2022/01/04 08:05:25;;;;;;;22.40;6.07;;;7.60;99.90;;;;;;4973980;28;20411;-30
2022/01/04 08:07:50;;;;;;;24.30;5.43;;;7.60;99.90;;;;;;4952787;28;20113;-29
2022/01/04 08:10:17;;;;;;;24.17;5.53;;;7.60;99.90;;;;;;4960915;28;20410;-29
2022/01/04 08:12:43;;;;;;;29.73;5.67;;;7.60;99.90;;;;;;4987744;28;20161;-29
2022/01/04 08:15:10;;;;;;;31.23;5.63;;;7.60;99.90;;;;;;4988563;28;20133;-29
2022/01/04 08:17:37;;;;;;;21.97;5.33;;;7.60;99.90;;;;;;4971789;28;20554;-30
2022/01/04 08:20:04;;;;;;;21.70;4.93;;;7.50;99.90;;;;;;4988272;28;20103;-29
2022/01/04 08:22:34;;;;;;;26.53;5.83;;;7.50;99.90;;;;;;4990463;28;20136;-29
2022/01/04 08:25:05;;;;;;;25.33;5.33;;;7.60;99.90;;;;;;4991921;28;20134;-29
2022/01/04 08:27:31;;;;;;;24.90;5.22;;;7.60;99.90;;;;;;4975411;28;20136;-30
2022/01/04 08:29:57;;;;;;;24.33;5.37;;;7.60;99.90;;;;;;4991800;28;20085;-29
2022/01/04 08:32:23;;;;;;;25.00;5.27;;;7.60;99.90;;;;;;4991091;28;20042;-30
2022/01/04 08:34:49;;;;;;;15.93;4.50;;;7.50;99.90;;;;;;4991219;28;20053;-29
2022/01/04 08:37:15;;;;;;;14.53;2.80;;;7.60;99.90;;;;;;4968486;28;20513;-29
2022/01/04 08:39:41;;;;;;;13.87;2.23;;;7.60;99.90;;;;;;4985434;28;20053;-29
2022/01/04 08:42:07;;;;;;;13.03;2.13;;;7.50;99.90;;;;;;4974724;28;20054;-30
2022/01/04 08:44:33;;;;;;;13.57;2.20;;;7.50;99.90;;;;;;4971836;28;20498;-30
2022/01/04 08:46:59;;;;;;;8.57;1.10;;;7.50;99.90;;;;;;4955760;28;20423;-29
2022/01/04 08:49:26;;;;;;;6.17;0.63;;;7.40;99.90;;;;;;4976119;28;20045;-29
2022/01/04 08:51:51;;;;;;;5.67;0.80;;;7.40;99.90;;;;;;4991765;28;20081;-29
2022/01/04 08:54:17;;;;;;;4.63;0.87;;;7.30;99.90;;;;;;4990033;28;20591;-29
2022/01/04 08:56:43;;;;;;;7.77;1.13;;;7.30;99.90;;;;;;4972862;28;20054;-30
2022/01/04 08:59:10;;;;;;;5.67;0.90;;;7.20;99.90;;;;;;4971579;28;20391;-29
2022/01/04 09:01:37;;;;;;;6.20;1.27;;;7.20;99.90;;;;;;4971220;28;20522;-29
2022/01/04 09:04:03;;;;;;;7.43;1.10;;;7.30;99.90;;;;;;4954464;28;20284;-30
2022/01/04 09:06:30;;;;;;;11.23;1.23;;;7.10;99.90;;;;;;4944379;28;20050;-29
2022/01/04 09:08:56;;;;;;;6.50;0.80;;;7.10;99.90;;;;;;4967796;28;20061;-30
2022/01/04 09:11:22;;;;;;;8.87;0.83;;;7.00;99.90;;;;;;4979770;28;20042;-29
2022/01/04 09:13:50;;;;;;;9.40;0.80;;;7.00;99.90;;;;;;4979528;28;20498;-29
2022/01/04 09:19:00;;;;;;;6.87;0.80;;;7.00;99.90;;;;;;4971851;28;20046;-29
2022/01/04 09:21:28;;;;;;;6.40;0.60;;;6.90;99.90;;;;;;4970968;28;20057;-29
2022/01/04 09:23:56;;;;;;;5.07;0.60;;;7.00;99.90;;;;;;4971867;28;20054;-29
2022/01/04 09:26:23;;;;;;;5.90;0.77;;;6.90;99.90;;;;;;4960141;28;20054;-29
2022/01/04 09:28:49;;;;;;;7.93;0.90;;;6.90;99.90;;;;;;4969356;28;20388;-29
2022/01/04 09:31:15;;;;;;;6.33;0.73;;;6.90;99.90;;;;;;4971644;28;20077;-29
2022/01/04 09:33:41;;;;;;;5.73;0.60;;;6.90;99.90;;;;;;4973250;28;20051;-29
2022/01/04 09:36:08;;;;;;;9.90;0.70;;;6.90;99.90;;;;;;4953961;28;20049;-30
2022/01/04 09:38:34;;;;;;;6.77;0.80;;;6.90;99.90;;;;;;4962224;28;20031;-29
2022/01/04 09:40:59;;;;;;;8.30;0.60;;;6.70;99.90;;;;;;4970491;28;20398;-29
2022/01/04 09:43:25;;;;;;;9.77;0.63;;;6.80;99.90;;;;;;4969479;28;20058;-29
2022/01/04 09:45:52;;;;;;;4.33;0.93;;;6.80;99.90;;;;;;4970444;28;20047;-29
2022/01/04 09:48:19;;;;;;;8.53;1.10;;;6.80;99.90;;;;;;4959585;28;20042;-29
2022/01/04 09:50:46;;;;;;;6.47;0.60;;;6.70;99.90;;;;;;4981644;28;20046;-29
2022/01/04 09:53:19;;;;;;;5.93;0.43;;;6.70;99.90;;;;;;4971974;28;20039;-29
2022/01/04 09:55:49;;;;;;;4.00;0.50;;;6.60;99.90;;;;;;4970180;28;20050;-29
2022/01/04 09:58:17;;;;;;;5.00;0.37;;;6.60;99.90;;;;;;4953988;28;20043;-29
2022/01/04 10:00:42;;;;;;;9.33;0.53;;;6.50;99.90;;;;;;4971579;28;20118;-30
2022/01/04 10:03:11;;;;;;;2.67;0.37;;;6.50;99.90;;;;;;4951696;28;20193;-29
2022/01/04 10:05:38;;;;;;;1.80;0.17;;;6.40;99.90;;;;;;4970315;28;20053;-29
2022/01/04 10:08:06;;;;;;;1.37;0.10;;;6.30;99.90;;;;;;4953900;28;20035;-29
2022/01/04 10:10:33;;;;;;;3.10;0.30;;;6.30;99.90;;;;;;4972241;28;20047;-29
2022/01/04 10:13:02;;;;;;;5.97;0.53;;;6.30;99.90;;;;;;4969296;28;20140;-29
2022/01/04 10:15:30;;;;;;;1.67;0.10;;;6.30;99.90;;;;;;4969769;28;20047;-29
2022/01/04 10:17:56;;;;;;;3.23;0.40;;;6.20;99.90;;;;;;4953847;28;20101;-30
2022/01/04 10:20:22;;;;;;;5.17;0.33;;;6.20;99.90;;;;;;4969500;28;20633;-29
2022/01/04 10:22:50;;;;;;;5.70;0.40;;;6.20;99.90;;;;;;4971399;28;20053;-29
2022/01/04 10:25:19;;;;;;;4.20;0.30;;;6.20;99.90;;;;;;4969602;28;20446;-29
2022/01/04 10:27:52;;;;;;;2.23;0.27;;;6.20;99.90;;;;;;4953582;28;20046;-29
2022/01/04 10:30:43;;;;;;;2.47;0.50;;;6.10;99.90;;;;;;4974636;28;20046;-29
2022/01/04 10:33:11;;;;;;;3.67;0.43;;;6.20;99.90;;;;;;4972692;28;20042;-29
2022/01/04 10:35:48;;;;;;;3.87;0.40;;;6.10;99.90;;;;;;4951564;28;20055;-29
2022/01/04 10:38:36;;;;;;;3.00;0.37;;;6.10;99.90;;;;;;4954391;28;20084;-29
2022/01/04 10:41:25;;;;;;;5.63;0.80;;;6.10;99.90;;;;;;4969227;28;20129;-29
2022/01/04 10:43:58;;;;;;;5.87;0.53;;;6.00;99.90;;;;;;4950653;28;20050;-29
2022/01/04 10:46:39;;;;;;;4.60;0.50;;;6.00;99.90;;;;;;4957264;28;20042;-29
2022/01/04 10:49:19;;;;;;;4.87;0.57;;;6.00;99.90;;;;;;4951801;28;20431;-29
2022/01/04 10:52:02;;;;;;;5.80;0.70;;;6.00;99.90;;;;;;4969152;28;20490;-29
2022/01/04 10:54:28;;;;;;;8.60;0.97;;;6.00;99.90;;;;;;4967943;28;20058;-29
2022/01/04 10:57:04;;;;;;;9.23;1.30;;;5.90;99.90;;;;;;4954410;28;20331;-29
2022/01/04 10:59:29;;;;;;;11.33;1.17;;;5.90;99.90;;;;;;4964528;28;20039;-30
2022/01/04 11:01:55;;;;;;;7.77;1.10;;;5.90;99.90;;;;;;4971208;28;20051;-29
2022/01/04 11:04:21;;;;;;;10.33;1.33;;;5.80;99.90;;;;;;4970300;28;20239;-29
2022/01/04 11:06:48;;;;;;;9.67;1.23;;;5.80;99.90;;;;;;4954146;28;20479;-29
2022/01/04 11:09:14;;;;;;;8.67;1.00;;;5.80;99.90;;;;;;4969670;28;20051;-28
2022/01/04 11:11:41;;;;;;;11.77;1.20;;;5.70;99.90;;;;;;4988938;28;20449;-29
2022/01/04 11:14:09;;;;;;;11.60;0.90;;;5.70;99.90;;;;;;4988205;28;20490;-29
2022/01/04 11:16:34;;;;;;;11.83;1.40;;;5.70;99.90;;;;;;4974985;28;20383;-29
2022/01/04 11:19:02;;;;;;;11.90;0.97;;;5.70;99.90;;;;;;4986502;28;20109;-29
2022/01/04 11:21:36;;;;;;;7.60;0.90;;;5.70;99.90;;;;;;4988507;28;20494;-29
2022/01/04 11:24:08;;;;;;;5.17;0.90;;;5.80;99.90;;;;;;4988093;28;20766;-29
2022/01/04 11:26:34;;;;;;;4.60;0.63;;;5.70;99.90;;;;;;4974321;28;20093;-29
2022/01/04 11:29:00;;;;;;;6.00;0.70;;;5.70;99.90;;;;;;4985995;28;20050;-29
2022/01/04 11:31:51;;;;;;;3.53;0.40;;;5.70;99.90;;;;;;4985067;28;20042;-29
2022/01/04 11:34:48;;;;;;;4.70;0.60;;;5.70;99.90;;;;;;4985260;28;20046;-28
2022/01/04 11:37:21;;;;;;;4.80;0.80;;;5.70;99.90;;;;;;4970474;28;20406;-29
2022/01/04 11:39:48;;;;;;;3.43;0.67;;;5.60;99.90;;;;;;4985660;28;20054;-29
2022/01/04 11:42:34;;;;;;;6.17;0.60;;;5.60;99.90;;;;;;4985075;28;20034;-29
2022/01/04 11:45:00;;;;;;;6.43;0.80;;;5.70;99.90;;;;;;4985536;28;20430;-29
2022/01/04 11:47:31;;;;;;;6.93;0.90;;;5.70;99.90;;;;;;4969401;28;20437;-29
2022/01/04 11:50:10;;;;;;;6.50;0.90;;;5.70;99.90;;;;;;4985738;28;20054;-29
2022/01/04 11:53:06;;;;;;;6.37;0.87;;;5.70;99.90;;;;;;4985240;28;20109;-29
2022/01/04 11:55:36;;;;;;;9.40;1.20;;;5.70;99.90;;;;;;4984121;28;20531;-29
2022/01/04 11:58:14;;;;;;;8.27;1.30;;;5.60;99.90;;;;;;4972869;28;20224;-30
2022/01/04 12:00:43;;;;;;;5.83;1.10;;;5.60;99.90;;;;;;4972687;28;20695;-29
2022/01/04 12:03:14;;;;;;;5.27;1.10;;;5.60;99.90;;;;;;4988692;28;20058;-29
2022/01/04 12:05:55;;;;;;;13.80;1.37;;;5.60;99.90;;;;;;4973216;28;20061;-29
2022/01/04 12:08:26;;;;;;;6.87;0.90;;;5.70;99.90;;;;;;4936075;28;20050;-29
2022/01/04 12:10:53;;;;;;;11.68;1.42;;;5.70;99.90;;;;;;4967122;28;20487;-29
2022/01/04 12:13:21;;;;;;;8.13;1.03;;;5.70;99.90;;;;;;4970736;28;20101;-29
2022/01/04 12:15:50;;;;;;;10.30;1.30;;;5.60;99.90;;;;;;4988920;28;20071;-29
2022/01/04 12:18:22;;;;;;;11.83;1.30;;;5.70;99.90;;;;;;4971672;28;20051;-29
2022/01/04 12:20:50;;;;;;;7.53;1.40;;;5.70;99.90;;;;;;4965524;28;20067;-29
2022/01/04 12:23:29;;;;;;;10.50;1.70;;;5.70;99.90;;;;;;4975461;28;20161;-29
2022/01/04 12:26:13;;;;;;;7.00;1.60;;;5.70;99.90;;;;;;4989468;28;20054;-29
2022/01/04 12:28:55;;;;;;;9.57;1.40;;;5.60;99.90;;;;;;4977817;28;20062;-29
2022/01/04 12:31:22;;;;;;;10.75;1.80;;;5.60;99.90;;;;;;4986264;28;20050;-29
2022/01/04 12:34:20;;;;;;;7.23;1.63;;;5.60;99.90;;;;;;4988117;28;20050;-29
2022/01/04 12:36:48;;;;;;;9.23;1.20;;;5.60;99.90;;;;;;4955847;28;20049;-29
2022/01/04 12:39:17;;;;;;;9.00;1.47;;;5.70;99.90;;;;;;4988338;28;20046;-29
2022/01/04 12:41:44;;;;;;;12.93;1.87;;;5.60;99.90;;;;;;4988682;28;20047;-29
2022/01/04 12:44:13;;;;;;;14.80;1.40;;;5.70;99.90;;;;;;4970304;28;20074;-29
2022/01/04 12:46:40;;;;;;;8.83;1.37;;;5.70;99.90;;;;;;4975222;28;20054;-29
2022/01/04 12:49:09;;;;;;;9.30;1.50;;;5.70;99.90;;;;;;4985892;28;20057;-30
2022/01/04 12:51:37;;;;;;;9.30;1.00;;;5.70;99.90;;;;;;4988602;28;20046;-29
2022/01/04 12:54:06;;;;;;;11.13;1.40;;;5.80;99.90;;;;;;4987823;28;20321;-29
2022/01/04 12:56:43;;;;;;;9.77;1.87;;;5.70;99.90;;;;;;4974637;28;20054;-29
2022/01/04 12:59:09;;;;;;;9.07;1.30;;;5.70;99.90;;;;;;4987400;28;20179;-29
2022/01/04 13:01:36;;;;;;;11.93;1.50;;;5.70;99.90;;;;;;4987733;28;20037;-29
2022/01/04 13:04:17;;;;;;;11.30;1.73;;;5.70;99.90;;;;;;4969208;28;20073;-29